Time;durP1;ratioP1;P1;durP2;ratioP2;P2;SDS_P1;SDS_P2;PMS_P1;PMS_P2;Temp;Humidity;BMP_temperature;BMP_pressure;BME280_temperature;BME280_humidity;BME280_pressure;Samples;Min_cycle;Max_cycle;Signal;HPM_P1;HPM_P2
2022/08/17 00:00:38;;;;;;;35.78;31.95;;;17.00;99.90;;;;;;5026215;28;20041;-41
2022/08/17 00:03:17;;;;;;;25.98;23.38;;;17.20;99.90;;;;;;5026040;28;20041;-41
2022/08/17 00:05:52;;;;;;;27.13;24.20;;;16.90;99.90;;;;;;5026032;28;20124;-41
2022/08/17 00:08:21;;;;;;;26.55;23.27;;;16.90;99.90;;;;;;5026258;28;20049;-41
2022/08/17 00:10:49;;;;;;;26.58;23.85;;;16.80;99.90;;;;;;5025322;28;20057;-41
2022/08/17 00:13:27;;;;;;;29.80;26.73;;;16.70;99.90;;;;;;5025937;28;20056;-41
2022/08/17 00:16:16;;;;;;;26.35;23.65;;;16.70;99.90;;;;;;5025111;28;20088;-40
2022/08/17 00:18:42;;;;;;;27.50;24.65;;;16.60;99.90;;;;;;5020597;28;20038;-41
2022/08/17 00:21:09;;;;;;;26.55;23.85;;;16.60;99.90;;;;;;5022473;28;20042;-41
2022/08/17 00:23:35;;;;;;;23.65;21.20;;;16.50;99.90;;;;;;5023858;28;20400;-41
2022/08/17 00:26:02;;;;;;;20.75;18.75;;;16.40;99.90;;;;;;5025026;28;20051;-40
2022/08/17 00:28:28;;;;;;;20.88;18.65;;;16.40;99.90;;;;;;5025008;28;20470;-40
2022/08/17 00:30:54;;;;;;;21.25;19.05;;;16.30;99.90;;;;;;5024603;28;20100;-40
2022/08/17 00:33:28;;;;;;;19.25;17.40;;;16.30;99.90;;;;;;5025090;28;20155;-41
2022/08/17 00:35:55;;;;;;;19.27;17.45;;;16.50;99.90;;;;;;5023414;28;20037;-41
2022/08/17 00:38:22;;;;;;;20.27;18.27;;;16.10;99.90;;;;;;5025441;28;20426;-41
2022/08/17 00:40:53;;;;;;;21.65;19.17;;;16.10;99.90;;;;;;5024873;28;20470;-40
2022/08/17 00:43:59;;;;;;;22.73;20.25;;;16.00;99.90;;;;;;5025150;28;20041;-41
2022/08/17 00:46:38;;;;;;;21.92;19.83;;;16.00;99.90;;;;;;5004149;28;20081;-40
2022/08/17 00:49:04;;;;;;;25.52;22.25;;;15.90;99.90;;;;;;5009539;28;20429;-40
2022/08/17 00:51:36;;;;;;;26.75;24.08;;;15.80;99.90;;;;;;5009342;28;20091;-40
2022/08/17 00:54:15;;;;;;;25.40;22.85;;;15.70;99.90;;;;;;5009527;28;20116;-40
2022/08/17 00:56:46;;;;;;;24.02;21.63;;;15.70;99.90;;;;;;5009197;28;20046;-40
2022/08/17 00:59:16;;;;;;;92.00;27.17;;;15.60;99.90;;;;;;5009746;28;20044;-40
2022/08/17 01:01:42;;;;;;;36.72;28.27;;;15.60;99.90;;;;;;5009513;28;20054;-41
2022/08/17 01:04:11;;;;;;;31.00;27.25;;;15.50;99.90;;;;;;4975612;28;20042;-40
2022/08/17 01:06:37;;;;;;;32.85;27.67;;;15.50;99.90;;;;;;5009502;28;20092;-40
2022/08/17 01:09:03;;;;;;;30.60;26.98;;;15.50;99.90;;;;;;5009060;28;20077;-40
2022/08/17 01:11:31;;;;;;;41.05;31.85;;;15.50;99.90;;;;;;5008856;28;20064;-40
2022/08/17 01:13:57;;;;;;;47.25;36.33;;;15.50;99.90;;;;;;5008919;28;20058;-40
2022/08/17 01:16:29;;;;;;;361.83;36.25;;;15.40;99.90;;;;;;5008699;28;20034;-41
2022/08/17 01:19:04;;;;;;;42.15;32.63;;;15.50;99.90;;;;;;5008507;28;20041;-40
2022/08/17 01:22:07;;;;;;;62.55;30.23;;;15.60;99.90;;;;;;5008613;28;20124;-41
2022/08/17 01:24:35;;;;;;;124.57;34.83;;;15.60;99.90;;;;;;4992263;28;20061;-40
2022/08/17 01:27:02;;;;;;;151.23;35.08;;;15.50;99.90;;;;;;5008124;28;20233;-40
2022/08/17 01:29:30;;;;;;;42.65;31.67;;;15.50;99.90;;;;;;4990473;28;20424;-40
2022/08/17 01:32:00;;;;;;;278.02;34.58;;;15.50;99.90;;;;;;5008192;28;20041;-40
2022/08/17 01:34:26;;;;;;;43.03;32.05;;;15.90;99.90;;;;;;5008353;28;20046;-41
2022/08/17 01:36:52;;;;;;;271.50;38.50;;;15.70;99.90;;;;;;5008129;28;20065;-40
2022/08/17 01:39:34;;;;;;;114.07;32.92;;;15.50;99.90;;;;;;5009156;28;20081;-40
2022/08/17 01:42:28;;;;;;;63.35;34.17;;;15.50;99.90;;;;;;5027825;28;20041;-40
2022/08/17 01:44:57;;;;;;;165.13;35.40;;;15.60;99.90;;;;;;4999928;28;20070;-40
2022/08/17 01:47:24;;;;;;;370.75;39.55;;;15.60;99.90;;;;;;5028168;28;20095;-40
2022/08/17 01:49:49;;;;;;;43.83;34.08;;;15.90;99.90;;;;;;5028029;28;20037;-40
2022/08/17 01:52:16;;;;;;;236.52;38.75;;;15.70;99.90;;;;;;5010309;28;20407;-40
2022/08/17 01:54:46;;;;;;;475.58;52.00;;;15.80;99.90;;;;;;5028168;28;20084;-40
2022/08/17 01:57:12;;;;;;;575.10;56.80;;;16.00;99.90;;;;;;5026993;28;20458;-40
2022/08/17 01:59:38;;;;;;;480.02;56.97;;;15.80;99.90;;;;;;5027826;28;20124;-40
2022/08/17 02:02:04;;;;;;;308.15;47.72;;;16.00;99.90;;;;;;5027542;28;20122;-40
2022/08/17 02:04:30;;;;;;;65.78;37.25;;;15.90;99.90;;;;;;5028050;28;20406;-40
2022/08/17 02:06:57;;;;;;;59.30;38.03;;;15.90;99.90;;;;;;5027284;28;20048;-40
2022/08/17 02:09:25;;;;;;;43.97;36.08;;;15.80;99.90;;;;;;5009329;28;20049;-40
2022/08/17 02:11:53;;;;;;;43.83;34.88;;;15.80;99.90;;;;;;5027173;28;20061;-40
2022/08/17 02:14:18;;;;;;;68.43;34.88;;;15.80;99.90;;;;;;5027625;28;20041;-40
2022/08/17 02:16:44;;;;;;;42.78;35.65;;;15.80;99.90;;;;;;5027053;28;20041;-41
2022/08/17 02:19:14;;;;;;;41.80;32.10;;;16.00;99.90;;;;;;4992996;28;20464;-40
2022/08/17 02:21:41;;;;;;;211.00;43.50;;;15.80;99.90;;;;;;5027287;28;20033;-40
2022/08/17 02:24:12;;;;;;;184.32;37.25;;;15.90;99.90;;;;;;5027028;28;20440;-40
2022/08/17 02:26:38;;;;;;;357.25;52.25;;;16.10;99.90;;;;;;5027462;28;20364;-40
2022/08/17 02:29:03;;;;;;;210.32;45.28;;;16.10;99.90;;;;;;5027483;28;20045;-40
2022/08/17 02:31:29;;;;;;;44.70;37.75;;;16.10;99.90;;;;;;5027224;28;20406;-40
2022/08/17 02:33:56;;;;;;;42.40;35.55;;;16.10;99.90;;;;;;5027016;28;20530;-41
2022/08/17 02:36:21;;;;;;;38.40;34.40;;;16.00;99.90;;;;;;5027167;28;20045;-40
2022/08/17 02:38:47;;;;;;;37.70;33.78;;;15.90;99.90;;;;;;5009100;28;20033;-40
2022/08/17 02:41:13;;;;;;;34.70;31.05;;;15.80;99.90;;;;;;5026911;28;20415;-40
2022/08/17 02:43:39;;;;;;;34.80;30.65;;;15.80;99.90;;;;;;5027390;28;20045;-40
2022/08/17 02:46:04;;;;;;;38.08;33.75;;;15.70;99.90;;;;;;5026614;28;20045;-40
2022/08/17 02:48:30;;;;;;;34.10;30.67;;;15.70;99.90;;;;;;5026792;28;20285;-40
2022/08/17 02:50:56;;;;;;;33.60;30.17;;;15.70;99.90;;;;;;5027087;28;20041;-41
2022/08/17 02:53:21;;;;;;;32.60;29.20;;;15.60;99.90;;;;;;5026666;28;20048;-40
2022/08/17 02:55:47;;;;;;;37.72;33.53;;;15.60;99.90;;;;;;5026982;28;20480;-40
2022/08/17 02:58:13;;;;;;;34.67;30.88;;;15.60;99.90;;;;;;5027057;28;20384;-40
2022/08/17 03:00:46;;;;;;;37.97;33.40;;;15.40;99.90;;;;;;5026716;28;20486;-39
2022/08/17 03:03:17;;;;;;;34.75;31.23;;;15.40;99.90;;;;;;5026066;28;20160;-39
2022/08/17 03:05:46;;;;;;;56.55;34.80;;;15.40;99.90;;;;;;5026453;28;20172;-39
2022/08/17 03:08:13;;;;;;;40.15;33.38;;;15.40;99.90;;;;;;5025863;28;20148;-39
2022/08/17 03:10:40;;;;;;;106.65;30.73;;;15.50;99.90;;;;;;5025869;28;20609;-39
2022/08/17 03:13:06;;;;;;;34.30;30.65;;;15.50;99.90;;;;;;5025902;28;20139;-40
2022/08/17 03:15:33;;;;;;;33.60;30.15;;;15.50;99.90;;;;;;5026330;28;20046;-40
2022/08/17 03:18:00;;;;;;;34.80;31.08;;;15.50;99.90;;;;;;5026267;28;20299;-41
2022/08/17 03:20:28;;;;;;;36.30;32.45;;;15.40;99.90;;;;;;5026512;28;20115;-40
2022/08/17 03:22:56;;;;;;;34.72;31.13;;;15.40;99.90;;;;;;5025812;28;20088;-40
2022/08/17 03:25:32;;;;;;;38.80;34.75;;;15.30;99.90;;;;;;5026059;28;20407;-40
2022/08/17 03:27:58;;;;;;;36.53;32.90;;;15.60;99.90;;;;;;5026280;28;20099;-40
2022/08/17 03:30:26;;;;;;;50.95;32.38;;;15.30;99.90;;;;;;5025996;28;20446;-40
2022/08/17 03:32:54;;;;;;;77.03;32.70;;;15.20;99.90;;;;;;5025721;28;20502;-40
2022/08/17 03:35:23;;;;;;;31.98;28.80;;;15.20;99.90;;;;;;5025862;28;20044;-40
2022/08/17 03:37:48;;;;;;;74.82;34.83;;;15.20;99.90;;;;;;5025931;28;20600;-40
2022/08/17 03:40:16;;;;;;;122.10;37.25;;;15.40;99.90;;;;;;5008411;28;20037;-40
2022/08/17 03:42:42;;;;;;;170.65;39.30;;;15.20;99.90;;;;;;5025928;28;20132;-40
2022/08/17 03:45:13;;;;;;;238.25;39.42;;;15.10;99.90;;;;;;5025634;28;20431;-40
2022/08/17 03:58:44;;;;;;;45.15;34.15;;;15.30;99.90;;;;;;5025864;28;20099;-40
2022/08/17 04:01:09;;;;;;;39.85;33.75;;;15.20;99.90;;;;;;5025697;28;20084;-40
2022/08/17 04:03:35;;;;;;;39.42;33.38;;;15.20;99.90;;;;;;5025837;28;20454;-40
2022/08/17 04:06:01;;;;;;;35.80;31.95;;;15.20;99.90;;;;;;5025671;28;20052;-40
2022/08/17 04:08:27;;;;;;;44.60;33.85;;;15.10;99.90;;;;;;5025517;28;20041;-40
2022/08/17 04:10:55;;;;;;;36.15;32.25;;;15.10;99.90;;;;;;5025608;28;20060;-40
2022/08/17 04:13:21;;;;;;;32.25;28.88;;;15.10;99.90;;;;;;5025576;28;20416;-40
2022/08/17 04:15:48;;;;;;;31.55;28.42;;;15.40;99.90;;;;;;5026393;28;20041;-40
2022/08/17 04:18:14;;;;;;;34.92;31.23;;;15.10;99.90;;;;;;5007875;28;20049;-40
2022/08/17 04:20:40;;;;;;;33.67;27.85;;;15.00;99.90;;;;;;5010375;28;20040;-40
2022/08/17 04:23:14;;;;;;;34.95;30.90;;;15.20;99.90;;;;;;5029344;28;20049;-40
2022/08/17 04:25:45;;;;;;;38.45;31.90;;;15.20;99.90;;;;;;5029517;28;20071;-40
2022/08/17 04:28:11;;;;;;;30.42;27.52;;;15.20;99.90;;;;;;5029267;28;20436;-40
2022/08/17 04:30:38;;;;;;;30.38;27.38;;;15.20;99.90;;;;;;5029546;28;20096;-40
2022/08/17 04:33:07;;;;;;;33.42;30.08;;;15.70;99.90;;;;;;5029896;28;20052;-40
2022/08/17 04:35:59;;;;;;;32.08;28.70;;;15.30;99.90;;;;;;5029491;28;20045;-40
2022/08/17 04:38:26;;;;;;;;;;;15.30;99.90;;;;;;5023271;28;20153;-40
2022/08/17 04:43:39;;;;;;;30.75;27.75;;;15.40;99.90;;;;;;5029549;28;20056;-40
2022/08/17 04:46:08;;;;;;;33.30;29.88;;;16.00;99.90;;;;;;5029207;28;20042;-40
2022/08/17 04:48:37;;;;;;;39.10;33.90;;;15.50;99.90;;;;;;5029504;28;20080;-40
2022/08/17 04:51:28;;;;;;;57.42;40.75;;;15.50;99.90;;;;;;5029742;28;20080;-40
2022/08/17 04:53:58;;;;;;;67.95;44.55;;;15.80;99.90;;;;;;5029312;28;20059;-40
2022/08/17 04:56:25;;;;;;;80.78;48.65;;;15.90;99.90;;;;;;5010904;28;20458;-40
2022/08/17 04:58:54;;;;;;;64.60;45.25;;;16.00;99.90;;;;;;5029224;28;20104;-40
2022/08/17 05:01:23;;;;;;;72.43;46.67;;;16.10;99.90;;;;;;5028808;28;20292;-40
2022/08/17 05:03:49;;;;;;;70.03;46.28;;;16.20;99.90;;;;;;5028414;28;20053;-40
2022/08/17 05:06:15;;;;;;;77.40;52.30;;;16.30;99.90;;;;;;5027390;28;20487;-40
2022/08/17 05:08:41;;;;;;;71.97;47.92;;;16.30;99.90;;;;;;5028081;28;20041;-40
2022/08/17 05:11:07;;;;;;;72.18;49.53;;;16.40;99.90;;;;;;5027482;28;20050;-40
2022/08/17 05:13:33;;;;;;;67.18;47.97;;;16.40;99.90;;;;;;5027266;28;20049;-40
2022/08/17 05:16:02;;;;;;;83.95;54.35;;;16.60;99.90;;;;;;5028128;28;20037;-40
2022/08/17 05:18:29;;;;;;;76.63;52.17;;;16.70;99.90;;;;;;5027845;28;20076;-40
2022/08/17 05:20:55;;;;;;;93.32;55.40;;;16.70;99.90;;;;;;5010962;28;20446;-40
2022/08/17 05:23:24;;;;;;;89.22;53.65;;;16.80;99.90;;;;;;5028198;28;20495;-40
2022/08/17 05:25:52;;;;;;;84.03;51.55;;;16.80;99.90;;;;;;5028815;28;20052;-40
2022/08/17 05:28:19;;;;;;;72.20;49.78;;;16.90;99.90;;;;;;5027383;28;20037;-40
2022/08/17 05:30:47;;;;;;;83.20;52.05;;;16.90;99.90;;;;;;5025930;28;20095;-40
2022/08/17 05:33:19;;;;;;;83.60;52.15;;;17.00;99.90;;;;;;5027549;28;20048;-40
2022/08/17 05:35:47;;;;;;;71.18;46.70;;;17.00;99.90;;;;;;5026123;28;20048;-40
2022/08/17 05:38:15;;;;;;;62.47;46.75;;;17.00;99.90;;;;;;5027819;28;20064;-40
2022/08/17 05:40:41;;;;;;;57.88;44.88;;;17.10;99.90;;;;;;5028230;28;20781;-40
2022/08/17 05:43:15;;;;;;;72.78;47.60;;;17.10;99.90;;;;;;5028146;28;20103;-40
2022/08/17 05:45:56;;;;;;;84.55;52.03;;;17.20;99.90;;;;;;5027869;28;20096;-40
2022/08/17 05:48:23;;;;;;;87.30;49.80;;;17.30;99.90;;;;;;5009686;28;20052;-40
2022/08/17 05:51:15;;;;;;;83.55;50.92;;;17.20;99.90;;;;;;5027791;28;20045;-40
2022/08/17 05:53:49;;;;;;;91.25;51.72;;;17.30;99.90;;;;;;5027297;28;20557;-40
2022/08/17 05:56:47;;;;;;;70.55;49.15;;;17.40;99.90;;;;;;5027398;28;20395;-40
2022/08/17 05:59:41;;;;;;;96.57;55.70;;;17.40;99.90;;;;;;5010804;28;20084;-40
2022/08/17 06:02:09;;;;;;;91.25;54.47;;;17.40;99.90;;;;;;5025065;28;20111;-32
2022/08/17 06:04:47;;;;;;;75.45;51.70;;;17.40;99.90;;;;;;5026841;28;20048;-31
2022/08/17 06:07:58;;;;;;;89.40;56.20;;;17.50;99.90;;;;;;5025864;28;20041;-31
2022/08/17 06:10:52;;;;;;;78.00;51.10;;;17.60;99.90;;;;;;5018178;28;20053;-32
2022/08/17 06:13:41;;;;;;;95.18;57.70;;;17.60;99.90;;;;;;5024959;28;20053;-31
2022/08/17 06:16:08;;;;;;;96.28;56.72;;;17.70;99.90;;;;;;5026461;28;20041;-32
2022/08/17 06:19:03;;;;;;;84.70;53.88;;;17.70;99.90;;;;;;5026321;28;20434;-32
2022/08/17 06:21:34;;;;;;;86.85;56.30;;;17.70;99.90;;;;;;5008256;28;20566;-32
2022/08/17 06:24:37;;;;;;;79.25;53.13;;;17.80;99.90;;;;;;5026902;28;20038;-32
2022/08/17 06:27:24;;;;;;;78.05;54.50;;;17.80;99.90;;;;;;5025348;28;20045;-32
2022/08/17 06:30:15;;;;;;;86.45;54.63;;;17.80;99.90;;;;;;5026350;28;20173;-32
2022/08/17 06:32:43;;;;;;;98.80;58.58;;;17.90;99.90;;;;;;5022947;28;20055;-32
2022/08/17 06:35:12;;;;;;;91.20;57.42;;;17.90;99.90;;;;;;5025313;28;20124;-33
2022/08/17 06:37:50;;;;;;;87.63;57.42;;;18.00;99.90;;;;;;5024427;28;20045;-32
2022/08/17 06:40:44;;;;;;;100.65;59.33;;;18.10;99.90;;;;;;5010243;28;20038;-32
2022/08/17 06:43:52;;;;;;;102.65;59.95;;;18.10;99.90;;;;;;5025618;28;20041;-32
2022/08/17 06:46:25;;;;;;;93.80;59.72;;;18.20;99.90;;;;;;5024635;28;20041;-32
2022/08/17 06:49:00;;;;;;;103.30;59.42;;;18.20;99.90;;;;;;5025859;28;20045;-33
2022/08/17 06:51:45;;;;;;;85.70;55.55;;;18.20;99.90;;;;;;5025967;28;20313;-33
2022/08/17 06:54:37;;;;;;;89.53;57.53;;;18.20;99.90;;;;;;5025698;28;20088;-34
2022/08/17 06:57:13;;;;;;;;;;;18.30;99.90;;;;;;5024972;28;20049;-33
2022/08/17 06:59:56;;;;;;;89.38;53.92;;;18.30;99.90;;;;;;5025640;28;19943;-32
2022/08/17 07:02:47;;;;;;;77.05;52.65;;;18.30;99.90;;;;;;5023171;28;20091;-32
2022/08/17 07:05:16;;;;;;;80.38;51.80;;;18.40;99.90;;;;;;5026519;28;20125;-32
2022/08/17 07:08:00;;;;;;;72.15;49.03;;;18.40;99.90;;;;;;5026141;28;20400;-33
2022/08/17 07:10:47;;;;;;;72.80;49.10;;;18.40;99.90;;;;;;5025911;28;20207;-32
2022/08/17 07:13:32;;;;;;;64.75;47.25;;;18.40;99.90;;;;;;5025946;28;20598;-32
2022/08/17 07:16:14;;;;;;;71.72;48.60;;;18.40;99.90;;;;;;5026401;28;20057;-32
2022/08/17 07:18:40;;;;;;;63.55;45.92;;;18.40;99.90;;;;;;5026530;28;20045;-33
2022/08/17 07:21:20;;;;;;;66.97;47.97;;;18.40;99.90;;;;;;5026371;28;20047;-32
2022/08/17 07:24:02;;;;;;;68.25;47.22;;;18.50;99.90;;;;;;5025290;28;20041;-32
2022/08/17 07:26:28;;;;;;;60.10;46.38;;;18.60;99.90;;;;;;5023502;28;20063;-32
2022/08/17 07:28:55;;;;;;;57.53;45.70;;;18.70;99.90;;;;;;5025272;28;20669;-32
2022/08/17 07:31:23;;;;;;;62.35;46.90;;;18.80;99.90;;;;;;5025549;28;20045;-32
2022/08/17 07:34:06;;;;;;;63.60;46.03;;;18.90;99.90;;;;;;5025767;28;20520;-32
2022/08/17 07:36:33;;;;;;;50.83;41.45;;;19.00;99.90;;;;;;5025512;28;20566;-32
2022/08/17 07:39:00;;;;;;;54.03;41.17;;;19.10;99.90;;;;;;5004884;28;20081;-32
2022/08/17 07:41:27;;;;;;;39.38;33.55;;;19.20;99.90;;;;;;4988490;28;20046;-32
2022/08/17 07:43:55;;;;;;;48.72;37.90;;;19.30;99.90;;;;;;5006303;28;20049;-32
2022/08/17 07:49:08;;;;;;;37.78;33.17;;;19.50;99.90;;;;;;5005819;28;20583;-32
2022/08/17 07:51:38;;;;;;;40.78;35.78;;;19.70;99.90;;;;;;5005506;28;20052;-32
2022/08/17 07:54:21;;;;;;;37.85;33.08;;;19.80;99.90;;;;;;5005728;28;20086;-32
2022/08/17 07:56:46;;;;;;;32.97;29.48;;;20.20;99.90;;;;;;5009567;28;20118;-32
2022/08/17 07:59:19;;;;;;;29.48;25.83;;;20.70;99.90;;;;;;5009415;28;20152;-33
2022/08/17 08:02:03;;;;;;;31.27;28.08;;;21.30;99.90;;;;;;5006513;28;20048;-32
2022/08/17 08:04:41;;;;;;;24.77;22.25;;;21.90;99.90;;;;;;5004334;28;20400;-33
2022/08/17 08:07:16;;;;;;;26.35;22.88;;;22.50;99.90;;;;;;5009197;28;20123;-33
2022/08/17 08:10:04;;;;;;;26.27;23.65;;;22.90;99.90;;;;;;5008637;28;20491;-32
2022/08/17 08:12:44;;;;;;;24.77;22.33;;;23.40;99.90;;;;;;5009029;28;20473;-32
2022/08/17 08:15:32;;;;;;;22.35;19.98;;;23.60;99.90;;;;;;5009655;28;20409;-33
2022/08/17 08:18:01;;;;;;;22.50;19.33;;;24.00;99.90;;;;;;5009979;28;20064;-33
2022/08/17 08:20:50;;;;;;;24.15;21.75;;;24.30;99.90;;;;;;5010928;28;20121;-33
2022/08/17 08:23:39;;;;;;;20.90;18.67;;;24.30;99.90;;;;;;5010310;28;20053;-33
2022/08/17 08:26:17;;;;;;;20.15;18.13;;;24.30;99.90;;;;;;5009917;28;20073;-33
2022/08/17 08:28:53;;;;;;;22.30;19.70;;;24.20;99.90;;;;;;5009302;28;20045;-33
2022/08/17 08:31:27;;;;;;;20.13;16.73;;;24.50;99.90;;;;;;5017490;28;20758;-33
2022/08/17 08:34:08;;;;;;;18.83;16.92;;;24.90;99.90;;;;;;5011131;28;20369;-33
2022/08/17 08:36:42;;;;;;;20.83;18.73;;;25.30;99.90;;;;;;5028072;28;20040;-33
2022/08/17 08:39:20;;;;;;;17.67;15.88;;;25.50;99.90;;;;;;5026667;28;20037;-32
2022/08/17 08:42:16;;;;;;;16.88;15.27;;;25.60;99.90;;;;;;5025987;28;20041;-33
2022/08/17 08:45:08;;;;;;;17.63;15.82;;;25.70;99.50;;;;;;5028646;28;20674;-33
2022/08/17 08:48:10;;;;;;;17.00;15.38;;;26.10;98.50;;;;;;5026579;28;20041;-33
2022/08/17 08:51:04;;;;;;;15.07;13.52;;;26.60;97.90;;;;;;5027370;28;20077;-33
2022/08/17 08:53:35;;;;;;;14.45;13.00;;;26.80;96.30;;;;;;5027719;28;20048;-33
2022/08/17 08:56:20;;;;;;;15.35;13.95;;;26.60;95.50;;;;;;5026316;28;20507;-33
2022/08/17 08:58:58;;;;;;;15.20;13.75;;;26.40;95.10;;;;;;5028379;28;20045;-33
2022/08/17 09:01:57;;;;;;;13.02;11.52;;;26.60;94.60;;;;;;5026548;28;20037;-33
2022/08/17 09:04:48;;;;;;;10.32;9.32;;;27.20;93.20;;;;;;5007802;28;20495;-33
2022/08/17 09:07:33;;;;;;;14.52;13.23;;;27.90;92.50;;;;;;5025556;28;20111;-33
2022/08/17 09:10:14;;;;;;;13.88;12.30;;;28.40;91.50;;;;;;5007727;28;20046;-33
2022/08/17 09:12:52;;;;;;;15.13;13.63;;;29.20;90.50;;;;;;5008154;28;20033;-33
2022/08/17 09:15:28;;;;;;;16.63;14.73;;;29.40;87.90;;;;;;5007502;28;20421;-33
2022/08/17 09:18:09;;;;;;;14.70;13.30;;;29.00;85.50;;;;;;5008552;28;20091;-33
2022/08/17 09:20:42;;;;;;;14.63;13.23;;;28.30;87.30;;;;;;5008941;28;20459;-33
2022/08/17 09:23:24;;;;;;;16.95;15.15;;;27.80;89.90;;;;;;5008517;28;20439;-33
2022/08/17 09:26:21;;;;;;;17.10;15.40;;;27.40;90.60;;;;;;5008576;28;20057;-33
2022/08/17 09:28:51;;;;;;;17.23;15.43;;;26.80;91.40;;;;;;4993002;28;20053;-33
2022/08/17 09:31:35;;;;;;;17.30;15.70;;;26.40;92.10;;;;;;5008112;28;20053;-33
2022/08/17 09:34:10;;;;;;;18.80;15.50;;;26.00;92.50;;;;;;5008037;28;20060;-33
2022/08/17 09:37:01;;;;;;;19.67;16.08;;;25.80;93.20;;;;;;5008711;28;20038;-33
2022/08/17 09:39:35;;;;;;;14.45;13.13;;;25.50;93.40;;;;;;5008577;28;20076;-33
2022/08/17 09:42:12;;;;;;;16.58;15.00;;;25.60;94.30;;;;;;5008344;28;20418;-33
2022/08/17 09:44:44;;;;;;;13.90;12.32;;;25.50;94.30;;;;;;5008480;28;20049;-33
2022/08/17 09:47:28;;;;;;;17.70;15.57;;;25.40;94.60;;;;;;5008328;28;20713;-32
2022/08/17 09:50:01;;;;;;;15.77;13.43;;;25.30;95.10;;;;;;5007805;28;20046;-33
2022/08/17 09:52:29;;;;;;;16.88;15.15;;;25.30;95.40;;;;;;5008134;28;20046;-33
2022/08/17 09:54:57;;;;;;;18.40;16.45;;;25.30;95.90;;;;;;4990005;28;20042;-33
2022/08/17 09:57:32;;;;;;;16.92;14.38;;;25.50;96.00;;;;;;5008071;28;20042;-32
2022/08/17 10:00:14;;;;;;;16.27;14.40;;;25.60;95.90;;;;;;5007921;28;20053;-33
2022/08/17 10:02:59;;;;;;;20.48;16.58;;;25.70;95.40;;;;;;5007767;28;20050;-33
2022/08/17 10:05:45;;;;;;;16.50;14.68;;;25.70;95.70;;;;;;5007718;28;20053;-33
2022/08/17 10:08:24;;;;;;;16.40;14.27;;;25.70;94.80;;;;;;5008147;28;20050;-33
2022/08/17 10:10:52;;;;;;;19.08;17.08;;;25.80;95.20;;;;;;4989685;28;20448;-33
2022/08/17 10:13:55;;;;;;;17.98;15.73;;;25.90;95.10;;;;;;5007914;28;20100;-33
2022/08/17 10:16:37;;;;;;;19.05;15.25;;;26.00;94.90;;;;;;4991118;28;20085;-33
2022/08/17 10:19:05;;;;;;;17.90;16.05;;;26.10;94.70;;;;;;5007523;28;20046;-33
2022/08/17 10:27:11;;;;;;;21.25;19.00;;;26.10;93.90;;;;;;5008267;28;20054;-33
2022/08/17 10:30:04;;;;;;;22.38;17.67;;;26.00;93.60;;;;;;5008487;28;20046;-33
2022/08/17 10:32:55;;;;;;;20.38;18.38;;;26.00;93.90;;;;;;5006518;28;20139;-33
2022/08/17 10:35:29;;;;;;;20.80;18.23;;;25.90;93.10;;;;;;5008031;28;20165;-33
2022/08/17 10:38:02;;;;;;;22.08;19.88;;;25.80;93.20;;;;;;5008180;28;20498;-33
2022/08/17 10:40:47;;;;;;;20.92;18.83;;;25.80;93.40;;;;;;5007708;28;20042;-33
2022/08/17 10:43:34;;;;;;;24.65;21.77;;;25.70;93.80;;;;;;5008112;28;20054;-39
2022/08/17 10:46:02;;;;;;;21.23;19.00;;;25.70;93.60;;;;;;5007848;28;20859;-38
2022/08/17 10:48:37;;;;;;;21.42;19.25;;;25.60;94.00;;;;;;5008458;28;20037;-38
2022/08/17 10:51:35;;;;;;;22.48;20.17;;;25.60;94.00;;;;;;5007226;28;20113;-39
2022/08/17 10:54:01;;;;;;;27.58;23.67;;;25.50;94.70;;;;;;5007525;28;20605;-38
2022/08/17 10:56:59;;;;;;;24.98;22.05;;;25.50;94.40;;;;;;5007626;28;20511;-40
2022/08/17 10:59:33;;;;;;;23.58;21.10;;;25.40;93.90;;;;;;4964234;28;20050;-39
2022/08/17 11:02:21;;;;;;;19.08;16.98;;;25.40;94.10;;;;;;5007812;28;20484;-41
2022/08/17 11:04:59;;;;;;;22.67;20.23;;;25.40;94.30;;;;;;5007751;28;20053;-40
2022/08/17 11:07:33;;;;;;;21.08;18.88;;;25.40;94.00;;;;;;5007727;28;20069;-40
2022/08/17 11:10:36;;;;;;;19.88;17.80;;;25.50;94.40;;;;;;5007197;28;20069;-40
2022/08/17 11:13:31;;;;;;;22.77;20.33;;;25.60;94.70;;;;;;4989808;28;20049;-37
2022/08/17 11:16:36;;;;;;;21.77;18.33;;;25.70;94.70;;;;;;5007681;28;20388;-39
2022/08/17 11:19:28;;;;;;;21.65;17.58;;;25.90;93.90;;;;;;5007782;28;20053;-37
2022/08/17 11:21:53;;;;;;;;;;;26.10;93.60;;;;;;4977166;28;20056;-38
2022/08/17 11:24:22;;;;;;;26.05;22.60;;;26.40;93.80;;;;;;5007602;28;19922;-39
2022/08/17 11:27:20;;;;;;;22.92;20.55;;;26.60;93.10;;;;;;5007088;28;20056;-39
2022/08/17 11:29:54;;;;;;;20.70;18.58;;;26.70;92.60;;;;;;4962475;28;20100;-39
2022/08/17 11:32:50;;;;;;;19.85;17.02;;;25.40;91.30;;;;;;5007211;28;20129;-38
2022/08/17 11:35:22;;;;;;;22.20;19.90;;;26.60;91.70;;;;;;4990424;28;20453;-37
2022/08/17 11:37:59;;;;;;;22.90;20.45;;;26.60;92.10;;;;;;5013519;28;20041;-38
2022/08/17 11:40:51;;;;;;;25.77;23.08;;;26.60;92.20;;;;;;5026992;28;20124;-39
2022/08/17 11:43:35;;;;;;;26.80;24.17;;;26.70;92.20;;;;;;5027350;28;20044;-38
2022/08/17 11:46:19;;;;;;;30.88;27.55;;;26.70;92.00;;;;;;5027093;28;20131;-39
2022/08/17 11:52:13;;;;;;;27.88;24.95;;;26.70;91.70;;;;;;5027610;28;20399;-39
2022/08/17 11:54:45;;;;;;;24.80;22.35;;;26.60;90.30;;;;;;4979294;28;20126;-39
2022/08/17 11:57:25;;;;;;;30.90;27.80;;;26.60;91.70;;;;;;5026625;28;20487;-38
2022/08/17 11:59:55;;;;;;;31.48;28.08;;;26.50;91.60;;;;;;5026902;28;20578;-38
2022/08/17 12:02:29;;;;;;;23.83;21.40;;;26.40;91.60;;;;;;5027242;28;20057;-39
2022/08/17 12:05:01;;;;;;;31.40;28.23;;;26.30;91.90;;;;;;5026610;28;20084;-39
2022/08/17 12:07:31;;;;;;;33.78;30.42;;;26.20;91.90;;;;;;5026900;28;20458;-38
2022/08/17 12:09:58;;;;;;;24.52;22.08;;;26.10;92.20;;;;;;5026504;28;20585;-39
2022/08/17 12:12:34;;;;;;;32.67;29.20;;;26.10;92.50;;;;;;5026487;28;20050;-39
2022/08/17 12:15:02;;;;;;;28.75;25.95;;;26.10;92.60;;;;;;5026353;28;20041;-39
2022/08/17 12:17:31;;;;;;;30.17;25.98;;;26.00;93.00;;;;;;5026720;28;20046;-38
2022/08/17 12:20:33;;;;;;;32.38;29.10;;;25.90;93.00;;;;;;5026659;28;20029;-37
2022/08/17 12:23:20;;;;;;;33.17;29.35;;;25.90;93.10;;;;;;5026018;28;20049;-39
2022/08/17 12:26:19;;;;;;;31.27;28.13;;;25.80;93.20;;;;;;5026760;28;20045;-37
2022/08/17 12:28:47;;;;;;;31.98;28.80;;;25.80;93.20;;;;;;5027522;28;20509;-38
2022/08/17 12:31:24;;;;;;;33.55;30.00;;;25.70;93.20;;;;;;5026888;28;20049;-39
2022/08/17 12:33:50;;;;;;;31.33;28.23;;;25.40;93.00;;;;;;5026798;28;20107;-38
2022/08/17 12:36:23;;;;;;;26.92;24.13;;;25.60;93.20;;;;;;5026593;28;20081;-39
2022/08/17 12:39:06;;;;;;;30.30;27.33;;;25.60;93.70;;;;;;5026823;28;20044;-38
2022/08/17 12:41:33;;;;;;;29.60;25.10;;;25.70;94.00;;;;;;5010771;28;20042;-39
2022/08/17 12:44:10;;;;;;;28.52;25.58;;;25.80;93.90;;;;;;5030424;28;20499;-39
2022/08/17 12:46:51;;;;;;;26.65;23.75;;;26.00;93.70;;;;;;5030104;28;20056;-38
2022/08/17 12:49:28;;;;;;;25.80;23.35;;;26.10;93.90;;;;;;5030087;28;20444;-38
2022/08/17 12:52:05;;;;;;;28.58;25.65;;;26.20;93.80;;;;;;5029739;28;20071;-38
2022/08/17 12:54:52;;;;;;;27.95;25.08;;;26.20;93.60;;;;;;5030107;28;20041;-38
2022/08/17 12:57:43;;;;;;;27.77;25.00;;;26.20;93.60;;;;;;5029516;28;20148;-39
2022/08/17 13:00:09;;;;;;;25.92;23.48;;;26.20;93.80;;;;;;5029381;28;20041;-40
2022/08/17 13:02:51;;;;;;;29.70;26.65;;;26.00;93.50;;;;;;5029337;28;20042;-38
2022/08/17 13:05:23;;;;;;;25.67;23.27;;;26.00;93.70;;;;;;5029169;28;20107;-39
2022/08/17 13:07:51;;;;;;;25.05;22.67;;;25.80;94.20;;;;;;5029853;28;20501;-39
2022/08/17 13:10:27;;;;;;;24.40;21.90;;;25.70;94.60;;;;;;5029298;28;20132;-39
2022/08/17 13:12:53;;;;;;;22.63;20.33;;;25.70;94.90;;;;;;5028976;28;20095;-39
2022/08/17 13:15:21;;;;;;;20.90;18.98;;;25.60;95.20;;;;;;5029117;28;20043;-39
2022/08/17 13:17:56;;;;;;;25.83;23.30;;;25.60;95.40;;;;;;5028824;28;20483;-39
2022/08/17 13:20:21;;;;;;;25.67;23.05;;;25.60;95.60;;;;;;5029107;28;20093;-40
2022/08/17 13:22:56;;;;;;;25.90;23.50;;;25.40;95.70;;;;;;5029450;28;20053;-39
2022/08/17 13:25:23;;;;;;;25.05;22.25;;;25.40;95.90;;;;;;5029122;28;20447;-39
2022/08/17 13:27:53;;;;;;;24.70;22.42;;;25.30;96.00;;;;;;5029155;28;20055;-38
2022/08/17 13:30:31;;;;;;;23.13;20.77;;;25.20;96.40;;;;;;5029153;28;20400;-39
2022/08/17 13:32:56;;;;;;;24.25;21.85;;;25.20;96.60;;;;;;5028575;28;20046;-39